createdAt,value
2023-04-28T00:02:19.698Z,7.80
2023-04-28T00:04:47.603Z,6.50
2023-04-28T00:07:14.820Z,5.80
2023-04-28T00:09:42.074Z,5.20
2023-04-28T00:12:09.148Z,6.95
2023-04-28T00:14:36.307Z,8.43
2023-04-28T00:17:03.531Z,4.82
2023-04-28T00:19:30.847Z,4.20
2023-04-28T00:21:58.037Z,4.55
2023-04-28T00:24:25.408Z,6.63
2023-04-28T00:26:52.625Z,3.45
2023-04-28T00:29:19.721Z,5.13
2023-04-28T00:31:47.167Z,4.20
2023-04-28T00:34:15.564Z,4.75
2023-04-28T00:36:42.814Z,8.57
2023-04-28T00:39:10.148Z,3.75
2023-04-28T00:41:37.289Z,7.03
2023-04-28T00:44:04.564Z,4.13
2023-04-28T00:46:33.461Z,6.70
2023-04-28T00:49:00.535Z,4.25
2023-04-28T00:51:29.174Z,4.95
2023-04-28T00:53:57.400Z,11.23
2023-04-28T00:56:24.538Z,4.20
2023-04-28T00:58:51.704Z,4.20
2023-04-28T01:01:19.262Z,8.43
2023-04-28T01:03:47.320Z,4.38
2023-04-28T01:06:15.185Z,6.05
2023-04-28T01:08:42.623Z,10.50
2023-04-28T01:11:14.438Z,4.82
2023-04-28T01:13:41.657Z,6.20
2023-04-28T01:16:08.906Z,5.00
2023-04-28T01:18:36.181Z,4.95
2023-04-28T01:21:04.558Z,5.55
2023-04-28T01:23:31.817Z,9.52
2023-04-28T01:25:58.905Z,6.07
2023-04-28T01:28:26.197Z,6.47
2023-04-28T01:30:53.293Z,4.22
2023-04-28T01:33:20.602Z,4.50
2023-04-28T01:35:47.703Z,6.32
2023-04-28T01:38:14.756Z,7.32
2023-04-28T01:40:41.855Z,5.53
2023-04-28T01:43:10.239Z,4.93
2023-04-28T01:45:37.531Z,5.13
2023-04-28T01:48:04.825Z,5.00
2023-04-28T01:50:32.093Z,3.97
2023-04-28T01:52:59.134Z,5.35
2023-04-28T01:55:26.605Z,5.55
2023-04-28T01:57:53.684Z,3.92
2023-04-28T02:00:20.953Z,4.07
2023-04-28T02:02:48.103Z,5.25
2023-04-28T02:05:15.335Z,8.77
2023-04-28T02:07:42.364Z,5.43
2023-04-28T02:10:09.971Z,5.25
2023-04-28T02:12:37.077Z,5.47
2023-04-28T02:15:04.690Z,5.45
2023-04-28T02:17:31.864Z,5.82
2023-04-28T02:19:58.945Z,5.22
2023-04-28T02:22:26.194Z,4.88
2023-04-28T02:24:53.322Z,6.00
2023-04-28T02:27:21.393Z,4.15
2023-04-28T02:29:48.897Z,9.90
2023-04-28T02:32:16.127Z,6.35
2023-04-28T02:34:43.310Z,4.85
2023-04-28T02:37:10.460Z,5.65
2023-04-28T02:39:37.706Z,6.82
2023-04-28T02:42:05.827Z,11.75
2023-04-28T02:44:32.939Z,10.02
2023-04-28T02:47:00.673Z,7.15
2023-04-28T02:49:27.890Z,4.05
2023-04-28T02:51:55.436Z,4.72
2023-04-28T02:54:27.771Z,7.60
2023-04-28T02:56:56.070Z,7.53
2023-04-28T02:59:24.392Z,7.50
2023-04-28T03:01:54.612Z,6.43
2023-04-28T03:04:22.090Z,7.60
2023-04-28T03:06:49.625Z,4.72
2023-04-28T03:09:16.761Z,4.78
2023-04-28T03:11:43.889Z,3.72
2023-04-28T03:14:11.214Z,6.90
2023-04-28T03:16:38.706Z,8.02
2023-04-28T03:19:05.876Z,5.75
2023-04-28T03:21:32.980Z,5.28
2023-04-28T03:24:00.012Z,6.90
2023-04-28T03:26:27.014Z,5.13
2023-04-28T03:28:54.933Z,9.93
2023-04-28T03:31:22.064Z,7.10
2023-04-28T03:33:49.115Z,5.25
2023-04-28T03:36:16.578Z,4.28
2023-04-28T03:38:44.038Z,4.93
2023-04-28T03:41:11.399Z,4.65
2023-04-28T03:43:38.570Z,5.55
2023-04-28T03:46:05.703Z,5.60
2023-04-28T03:48:33.168Z,6.53
2023-04-28T03:51:00.374Z,4.80
2023-04-28T03:53:27.544Z,6.32
2023-04-28T03:55:54.866Z,5.28
2023-04-28T03:58:22.098Z,8.00
2023-04-28T04:00:49.248Z,6.35
2023-04-28T04:03:16.508Z,5.88
2023-04-28T04:05:44.197Z,5.53
2023-04-28T04:08:11.796Z,6.22
2023-04-28T04:10:38.872Z,9.02
2023-04-28T04:13:06.001Z,6.55
2023-04-28T04:15:33.174Z,8.38
2023-04-28T04:18:00.664Z,5.50
2023-04-28T04:20:28.150Z,5.72
2023-04-28T04:22:55.645Z,6.82
2023-04-28T04:25:23.453Z,6.40
2023-04-28T04:27:50.619Z,13.20
2023-04-28T04:30:18.044Z,5.13
2023-04-28T04:32:45.252Z,5.40
2023-04-28T04:35:12.677Z,10.98
2023-04-28T04:37:40.115Z,7.38
2023-04-28T04:40:07.949Z,4.88
2023-04-28T04:42:35.519Z,7.22
2023-04-28T04:45:02.675Z,6.03
2023-04-28T04:47:29.887Z,7.05
2023-04-28T04:49:57.276Z,4.47
2023-04-28T04:52:24.926Z,5.60
2023-04-28T04:54:52.142Z,5.75
2023-04-28T04:57:19.222Z,5.40
2023-04-28T04:59:46.803Z,7.93
2023-04-28T05:02:13.991Z,4.85
2023-04-28T05:04:41.451Z,10.88
2023-04-28T05:07:08.763Z,4.30
2023-04-28T05:09:35.899Z,8.55
2023-04-28T05:12:03.032Z,5.85
2023-04-28T05:14:30.262Z,8.52
2023-04-28T05:16:57.500Z,6.15
2023-04-28T05:19:25.334Z,6.78
2023-04-28T05:21:55.170Z,7.10
2023-04-28T05:24:25.341Z,5.93
2023-04-28T05:26:54.151Z,4.35
2023-04-28T05:29:21.938Z,7.28
2023-04-28T05:31:49.132Z,8.02
2023-04-28T05:34:17.123Z,7.60
2023-04-28T05:36:44.730Z,5.82
2023-04-28T05:39:11.859Z,10.45
2023-04-28T05:41:39.904Z,8.75
2023-04-28T05:44:07.085Z,10.25
2023-04-28T05:46:34.815Z,6.32
2023-04-28T05:49:01.940Z,9.85
2023-04-28T05:51:29.064Z,8.23
2023-04-28T05:53:56.681Z,7.93
2023-04-28T05:56:24.171Z,12.88
2023-04-28T05:58:51.327Z,10.00
2023-04-28T06:01:18.422Z,8.48
2023-04-28T06:03:45.732Z,6.68
2023-04-28T06:06:13.227Z,11.10
2023-04-28T06:08:40.922Z,8.82
2023-04-28T06:11:08.055Z,9.07
2023-04-28T06:13:35.437Z,7.43
2023-04-28T06:16:02.787Z,7.93
2023-04-28T06:18:32.946Z,10.13
2023-04-28T06:21:01.865Z,9.45
2023-04-28T06:23:28.996Z,12.65
2023-04-28T06:25:56.252Z,15.38
2023-04-28T06:28:23.453Z,14.48
2023-04-28T06:30:51.074Z,14.52
2023-04-28T06:33:18.331Z,11.18
2023-04-28T06:35:45.489Z,9.52
2023-04-28T06:38:12.544Z,13.05
2023-04-28T06:40:40.734Z,9.13
2023-04-28T06:43:07.860Z,14.18
2023-04-28T06:45:35.100Z,8.88
2023-04-28T06:48:02.589Z,12.60
2023-04-28T06:50:30.023Z,17.33
2023-04-28T06:52:58.683Z,9.95
2023-04-28T06:55:26.912Z,12.60
2023-04-28T06:57:54.088Z,14.60
2023-04-28T07:00:21.388Z,13.25
2023-04-28T07:02:48.697Z,10.18
2023-04-28T07:05:16.699Z,13.60
2023-04-28T07:07:44.185Z,14.55
2023-04-28T07:10:11.582Z,11.60
2023-04-28T07:12:38.762Z,15.60
2023-04-28T07:15:06.586Z,12.70
2023-04-28T07:17:34.034Z,11.82
2023-04-28T07:20:01.431Z,12.77
2023-04-28T07:22:28.541Z,13.70
2023-04-28T07:27:21.531Z,11.95
2023-04-28T07:29:48.712Z,13.93
2023-04-28T07:34:54.420Z,18.60
2023-04-28T07:37:21.571Z,14.55
2023-04-28T07:39:48.850Z,14.05
2023-04-28T07:42:16.012Z,15.25
2023-04-28T07:44:43.145Z,15.57
2023-04-28T07:47:10.687Z,15.13
2023-04-28T07:49:37.857Z,13.73
2023-04-28T07:52:05.209Z,12.90
2023-04-28T07:54:32.369Z,12.90
2023-04-28T07:56:59.406Z,14.40
2023-04-28T07:59:26.870Z,17.60
2023-04-28T08:01:54.240Z,16.83
2023-04-28T08:04:21.775Z,17.65
2023-04-28T08:06:49.621Z,12.82
2023-04-28T08:09:17.070Z,17.58
2023-04-28T08:11:44.226Z,15.00
2023-04-28T08:14:11.369Z,21.00
2023-04-28T08:16:41.251Z,15.90
2023-04-28T08:19:08.690Z,20.75
2023-04-28T08:21:36.330Z,17.17
2023-04-28T08:24:03.630Z,15.88
2023-04-28T08:26:31.283Z,16.73
2023-04-28T08:28:58.395Z,16.83
2023-04-28T08:31:25.682Z,16.10
2023-04-28T08:33:54.864Z,22.02
2023-04-28T08:36:29.097Z,15.68
2023-04-28T08:38:59.258Z,16.50
2023-04-28T08:41:27.815Z,17.55
2023-04-28T08:43:55.588Z,21.10
2023-04-28T08:46:24.282Z,16.25
2023-04-28T08:48:54.204Z,14.77
2023-04-28T08:51:40.868Z,15.43
2023-04-28T08:54:25.498Z,19.60
2023-04-28T08:56:57.031Z,16.17
2023-04-28T08:59:24.417Z,18.13
2023-04-28T09:01:52.151Z,15.68
2023-04-28T09:04:20.797Z,25.35
2023-04-28T09:06:49.010Z,26.40
2023-04-28T09:09:32.666Z,24.02
2023-04-28T09:12:03.110Z,19.17
2023-04-28T09:14:33.034Z,17.25
2023-04-28T09:17:01.480Z,16.58
2023-04-28T09:19:37.333Z,18.38
2023-04-28T09:22:21.973Z,19.88
2023-04-28T09:24:55.404Z,19.15
2023-04-28T09:27:29.261Z,22.67
2023-04-28T09:32:24.807Z,19.90
2023-04-28T09:34:57.223Z,21.17
2023-04-28T09:37:31.807Z,17.73
2023-04-28T09:40:05.820Z,20.05
2023-04-28T09:42:34.748Z,18.70
2023-04-28T09:45:06.891Z,22.50
2023-04-28T09:47:36.706Z,20.42
2023-04-28T09:50:07.065Z,26.58
2023-04-28T09:52:35.029Z,21.52
2023-04-28T09:55:04.408Z,25.73
2023-04-28T09:57:32.769Z,24.17
2023-04-28T10:00:00.633Z,19.25
2023-04-28T10:04:58.918Z,23.08
2023-04-28T10:07:27.291Z,20.80
2023-04-28T10:09:56.403Z,20.90
2023-04-28T10:12:24.601Z,20.40
2023-04-28T10:14:55.495Z,26.60
2023-04-28T10:17:25.602Z,20.50
2023-04-28T10:19:54.473Z,17.35
2023-04-28T10:22:57.629Z,20.83
2023-04-28T10:25:31.249Z,21.17
2023-04-28T10:28:00.329Z,19.48
2023-04-28T10:30:31.309Z,16.38
2023-04-28T10:33:13.669Z,17.85
2023-04-28T10:35:44.326Z,17.60
2023-04-28T10:38:24.552Z,16.05
2023-04-28T10:40:56.511Z,20.83
2023-04-28T10:43:29.542Z,16.92
2023-04-28T10:46:01.073Z,18.10
2023-04-28T10:48:34.884Z,16.92
2023-04-28T10:51:09.495Z,17.35
2023-04-28T10:53:42.437Z,17.20
2023-04-28T10:56:15.402Z,16.10
2023-04-28T10:58:45.972Z,19.23
2023-04-28T11:01:19.063Z,18.55
2023-04-28T11:03:47.158Z,19.75
2023-04-28T11:06:41.319Z,17.02
2023-04-28T11:09:20.225Z,20.17
2023-04-28T11:12:03.648Z,14.02
2023-04-28T11:14:43.250Z,16.90
2023-04-28T11:17:13.502Z,16.73
2023-04-28T11:19:43.603Z,15.82
2023-04-28T11:22:16.298Z,15.15
2023-04-28T11:24:59.589Z,14.25
2023-04-28T11:27:28.074Z,13.45
2023-04-28T11:29:55.858Z,11.90
2023-04-28T11:32:34.110Z,16.38
2023-04-28T11:35:01.988Z,14.85
2023-04-28T11:37:29.062Z,15.88
2023-04-28T11:39:57.324Z,15.00
2023-04-28T11:42:27.118Z,13.35
2023-04-28T11:44:55.292Z,13.93
2023-04-28T11:47:33.497Z,15.68
2023-04-28T11:50:02.036Z,15.90
2023-04-28T11:52:29.365Z,15.85
2023-04-28T11:54:59.854Z,19.63
2023-04-28T11:57:27.637Z,14.70
2023-04-28T12:00:14.372Z,11.32
2023-04-28T12:02:42.213Z,14.65
2023-04-28T12:05:10.819Z,12.90
2023-04-28T12:07:45.307Z,14.35
2023-04-28T12:10:17.538Z,17.98
2023-04-28T12:12:52.089Z,11.98
2023-04-28T12:15:22.154Z,14.93
2023-04-28T12:17:51.145Z,12.77
2023-04-28T12:20:38.861Z,13.27
2023-04-28T12:23:08.030Z,9.73
2023-04-28T12:25:44.023Z,8.77
2023-04-28T12:28:11.297Z,9.00
2023-04-28T12:30:44.536Z,7.25
2023-04-28T12:33:29.118Z,7.65
2023-04-28T12:35:57.523Z,11.82
2023-04-28T12:38:25.439Z,8.43
2023-04-28T12:40:53.378Z,9.02
2023-04-28T12:43:23.414Z,6.20
2023-04-28T12:45:53.576Z,7.80
2023-04-28T12:48:24.270Z,7.63
2023-04-28T12:50:52.124Z,5.05
2023-04-28T12:53:19.441Z,9.73
2023-04-28T12:55:46.509Z,8.48
2023-04-28T12:58:13.665Z,9.18
2023-04-28T13:00:41.958Z,5.53
2023-04-28T13:03:09.758Z,6.80
2023-04-28T13:05:37.114Z,7.93
2023-04-28T13:08:04.890Z,8.60
2023-04-28T13:10:32.057Z,7.28
2023-04-28T13:12:59.115Z,8.10
2023-04-28T13:15:27.201Z,10.88
2023-04-28T13:17:56.763Z,9.38
2023-04-28T13:20:24.327Z,8.82
2023-04-28T13:22:52.214Z,8.40
2023-04-28T13:25:19.332Z,10.05
2023-04-28T13:27:47.236Z,7.18
2023-04-28T13:30:14.406Z,6.60
2023-04-28T13:32:41.504Z,6.30
2023-04-28T13:35:09.508Z,6.40
2023-04-28T13:37:42.564Z,5.72
2023-04-28T13:40:09.958Z,5.03
2023-04-28T13:42:37.059Z,5.82
2023-04-28T13:45:04.432Z,8.90
2023-04-28T13:47:32.509Z,5.68
2023-04-28T13:50:00.473Z,5.70
2023-04-28T13:52:27.618Z,4.65
2023-04-28T13:54:55.264Z,4.93
2023-04-28T13:57:23.038Z,4.75
2023-04-28T13:59:50.140Z,4.13
2023-04-28T14:02:17.459Z,5.40
2023-04-28T14:04:49.112Z,5.03
2023-04-28T14:07:17.242Z,3.95
2023-04-28T14:09:44.562Z,4.22
2023-04-28T14:12:12.286Z,4.95
2023-04-28T14:14:40.354Z,3.42
2023-04-28T14:17:07.588Z,5.35
2023-04-28T14:19:34.827Z,5.55
2023-04-28T14:22:02.563Z,5.03
2023-04-28T14:24:29.694Z,4.82
2023-04-28T14:26:56.962Z,9.15
2023-04-28T14:29:24.149Z,4.82
2023-04-28T14:31:51.665Z,5.57
2023-04-28T14:34:19.060Z,5.22
2023-04-28T14:36:48.035Z,4.82
2023-04-28T14:39:15.155Z,4.38
2023-04-28T14:41:42.253Z,8.02
2023-04-28T14:44:09.509Z,8.40
2023-04-28T14:46:37.113Z,7.25
2023-04-28T14:49:05.957Z,9.40
2023-04-28T14:51:33.116Z,10.10
2023-04-28T14:54:00.457Z,11.85
2023-04-28T14:56:27.536Z,14.73
2023-04-28T14:58:55.179Z,14.50
2023-04-28T15:01:22.383Z,15.77
2023-04-28T15:03:49.804Z,15.50
2023-04-28T15:06:17.160Z,16.95
2023-04-28T15:08:44.268Z,16.15
2023-04-28T15:11:11.769Z,20.88
2023-04-28T15:13:40.014Z,21.30
2023-04-28T15:16:09.784Z,17.13
2023-04-28T15:18:36.973Z,16.88
2023-04-28T15:21:04.285Z,21.60
2023-04-28T15:23:31.608Z,24.60
2023-04-28T15:25:58.719Z,21.67
2023-04-28T15:28:27.630Z,24.42
2023-04-28T15:30:55.407Z,21.58
2023-04-28T15:33:24.284Z,25.58
2023-04-28T15:35:51.362Z,27.02
2023-04-28T15:38:18.508Z,22.48
2023-04-28T15:40:46.166Z,19.85
2023-04-28T15:43:13.438Z,21.70
2023-04-28T15:45:40.606Z,24.30
2023-04-28T15:48:10.568Z,19.83
2023-04-28T15:50:37.771Z,23.20
2023-04-28T15:53:04.863Z,24.25
2023-04-28T15:55:32.101Z,21.75
2023-04-28T15:57:59.422Z,23.33
2023-04-28T16:00:26.568Z,21.35
2023-04-28T16:02:53.983Z,18.98
2023-04-28T16:05:21.823Z,23.75
2023-04-28T16:07:49.901Z,24.30
2023-04-28T16:10:17.307Z,24.48
2023-04-28T16:12:44.702Z,19.30
2023-04-28T16:15:13.229Z,23.08
2023-04-28T16:17:41.679Z,27.88
2023-04-28T16:20:10.179Z,20.52
2023-04-28T16:22:38.950Z,22.88
2023-04-28T16:25:06.986Z,21.33
2023-04-28T16:27:35.604Z,23.27
2023-04-28T16:30:06.281Z,28.63
2023-04-28T16:32:36.405Z,24.13
2023-04-28T16:35:06.165Z,22.40
2023-04-28T16:37:33.338Z,24.35
2023-04-28T16:40:00.682Z,27.33
2023-04-28T16:42:27.748Z,24.77
2023-04-28T16:44:55.391Z,21.67
2023-04-28T16:47:22.581Z,19.15
2023-04-28T16:49:49.830Z,24.42
2023-04-28T16:52:17.188Z,20.27
2023-04-28T16:54:44.303Z,18.05
2023-04-28T16:57:11.543Z,25.27
2023-04-28T16:59:38.628Z,20.85
2023-04-28T17:02:06.656Z,27.77
2023-04-28T17:04:34.449Z,29.58
2023-04-28T17:07:04.527Z,26.42
2023-04-28T17:09:33.281Z,20.30
2023-04-28T17:12:01.015Z,16.58
2023-04-28T17:14:28.203Z,25.05
2023-04-28T17:16:58.424Z,19.65
2023-04-28T17:19:26.057Z,14.05
2023-04-28T17:21:55.488Z,11.27
2023-04-28T17:24:23.675Z,11.73
2023-04-28T17:26:52.152Z,12.38
2023-04-28T17:29:19.314Z,13.23
2023-04-28T17:31:47.191Z,15.27
2023-04-28T17:34:14.352Z,12.88
2023-04-28T17:36:42.198Z,13.52
2023-04-28T17:39:09.709Z,8.55
2023-04-28T17:41:36.927Z,14.68
2023-04-28T17:44:04.091Z,10.35
2023-04-28T17:46:32.338Z,9.45
2023-04-28T17:49:00.548Z,9.07
2023-04-28T17:51:27.943Z,11.05
2023-04-28T17:53:58.717Z,9.50
2023-04-28T17:56:26.357Z,10.35
2023-04-28T17:58:53.560Z,10.65
2023-04-28T18:01:20.687Z,10.70
2023-04-28T18:03:54.101Z,12.90
2023-04-28T18:06:24.837Z,22.20
2023-04-28T18:08:52.825Z,19.80
2023-04-28T18:11:19.878Z,20.55
2023-04-28T18:13:47.236Z,16.58
2023-04-28T18:16:15.057Z,22.63
2023-04-28T18:18:42.262Z,25.95
2023-04-28T18:21:09.708Z,25.08
2023-04-28T18:23:36.863Z,23.02
2023-04-28T18:26:04.006Z,22.08
2023-04-28T18:28:31.196Z,24.27
2023-04-28T18:30:58.280Z,22.88
2023-04-28T18:33:28.499Z,21.90
2023-04-28T18:36:00.578Z,26.35
2023-04-28T18:38:27.763Z,20.75
2023-04-28T18:40:55.399Z,21.15
2023-04-28T18:43:24.221Z,23.77
2023-04-28T18:45:51.867Z,21.17
2023-04-28T18:48:19.384Z,24.92
2023-04-28T18:50:48.695Z,22.40
2023-04-28T18:53:18.502Z,26.70
2023-04-28T18:55:45.663Z,27.10
2023-04-28T18:58:14.977Z,23.67
2023-04-28T19:00:45.590Z,26.00
2023-04-28T19:03:13.710Z,26.55
2023-04-28T19:05:45.185Z,31.50
2023-04-28T19:08:12.410Z,27.02
2023-04-28T19:10:39.647Z,29.63
2023-04-28T19:13:07.029Z,25.35
2023-04-28T19:15:34.141Z,35.65
2023-04-28T19:18:02.296Z,28.77
2023-04-28T19:20:29.494Z,26.48
2023-04-28T19:22:56.941Z,30.67
2023-04-28T19:25:25.298Z,32.17
2023-04-28T19:27:52.368Z,34.20
2023-04-28T19:30:19.447Z,34.85
2023-04-28T19:32:46.577Z,28.55
2023-04-28T19:35:14.560Z,30.95
2023-04-28T19:37:41.896Z,35.50
2023-04-28T19:40:09.708Z,35.15
2023-04-28T19:42:36.800Z,29.77
2023-04-28T19:45:04.284Z,33.22
2023-04-28T19:47:34.696Z,38.35
2023-04-28T19:50:02.197Z,36.05
2023-04-28T19:52:29.986Z,39.28
2023-04-28T19:54:57.320Z,38.65
2023-04-28T19:57:24.982Z,40.13
2023-04-28T19:59:52.760Z,37.55
2023-04-28T20:02:21.062Z,40.88
2023-04-28T20:04:49.732Z,43.72
2023-04-28T20:07:16.976Z,44.63
2023-04-28T20:09:45.010Z,43.13
2023-04-28T20:12:12.182Z,44.50
2023-04-28T20:14:39.331Z,39.40
2023-04-28T20:17:09.028Z,43.75
2023-04-28T20:19:36.903Z,38.55
2023-04-28T20:22:07.727Z,51.25
2023-04-28T20:24:36.361Z,40.17
2023-04-28T20:27:04.252Z,46.78
2023-04-28T20:29:35.005Z,53.03
2023-04-28T20:32:03.239Z,43.15
2023-04-28T20:34:31.843Z,52.80
2023-04-28T20:36:59.760Z,49.83
2023-04-28T20:39:26.844Z,52.97
2023-04-28T20:41:53.966Z,45.55
2023-04-28T20:44:21.067Z,52.70
2023-04-28T20:46:48.294Z,53.72
2023-04-28T20:49:15.383Z,53.78
2023-04-28T20:51:45.168Z,56.67
2023-04-28T20:54:13.013Z,55.13
2023-04-28T20:56:41.995Z,58.13
2023-04-28T20:59:09.232Z,62.60
2023-04-28T21:01:36.330Z,58.67
2023-04-28T21:04:03.597Z,45.67
2023-04-28T21:06:30.899Z,40.70
2023-04-28T21:08:57.965Z,42.85
2023-04-28T21:11:25.651Z,44.90
2023-04-28T21:13:53.585Z,43.22
2023-04-28T21:16:21.719Z,42.97
2023-04-28T21:18:52.394Z,46.42
2023-04-28T21:21:19.526Z,39.38
2023-04-28T21:23:47.052Z,46.10
2023-04-28T21:26:14.117Z,36.78
2023-04-28T21:28:41.725Z,42.35
2023-04-28T21:31:09.847Z,38.45
2023-04-28T21:33:37.278Z,31.98
2023-04-28T21:36:07.857Z,34.50
2023-04-28T21:38:38.950Z,30.63
2023-04-28T21:41:07.525Z,35.40
2023-04-28T21:43:34.979Z,33.10
2023-04-28T21:46:02.291Z,28.05
2023-04-28T21:48:29.456Z,32.30
2023-04-28T21:50:56.862Z,32.08
2023-04-28T21:53:23.978Z,29.58
2023-04-28T21:55:51.031Z,30.05
2023-04-28T21:58:18.400Z,30.20
2023-04-28T22:00:48.549Z,25.65
2023-04-28T22:03:16.392Z,30.60
2023-04-28T22:05:44.866Z,31.48
2023-04-28T22:08:12.854Z,28.05
2023-04-28T22:10:40.353Z,24.20
2023-04-28T22:13:07.459Z,23.63
2023-04-28T22:15:34.679Z,26.83
2023-04-28T22:18:02.033Z,23.40
2023-04-28T22:20:29.347Z,24.38
2023-04-28T22:22:57.647Z,23.65
2023-04-28T22:25:25.377Z,25.13
2023-04-28T22:27:52.715Z,23.83
2023-04-28T22:30:19.910Z,28.85
2023-04-28T22:32:47.579Z,25.63
2023-04-28T22:35:16.637Z,25.73
2023-04-28T22:37:44.211Z,26.30
2023-04-28T22:40:11.716Z,28.77
2023-04-28T22:42:40.380Z,25.77
2023-04-28T22:45:10.058Z,25.65
2023-04-28T22:47:39.129Z,23.88
2023-04-28T22:50:10.754Z,32.50
2023-04-28T22:52:37.860Z,24.90
2023-04-28T22:55:06.525Z,30.77
2023-04-28T22:57:33.905Z,25.83
2023-04-28T23:00:01.299Z,26.60
2023-04-28T23:02:28.812Z,28.52
2023-04-28T23:04:56.818Z,25.88
2023-04-28T23:07:24.841Z,23.75
2023-04-28T23:09:53.205Z,23.35
2023-04-28T23:12:23.864Z,29.55
2023-04-28T23:14:51.141Z,29.80
2023-04-28T23:17:18.472Z,29.33
2023-04-28T23:19:45.612Z,34.10
2023-04-28T23:22:13.122Z,31.33
2023-04-28T23:24:40.507Z,37.22
2023-04-28T23:27:07.809Z,28.85
2023-04-28T23:29:35.877Z,29.70
2023-04-28T23:32:04.026Z,30.92
2023-04-28T23:34:33.847Z,31.08
2023-04-28T23:37:01.137Z,34.75
2023-04-28T23:39:30.184Z,30.52
2023-04-28T23:41:58.910Z,31.48
2023-04-28T23:44:26.174Z,44.80
2023-04-28T23:46:56.215Z,32.17
2023-04-28T23:49:23.916Z,39.20
2023-04-28T23:51:51.092Z,37.03
2023-04-28T23:54:18.220Z,40.50
2023-04-28T23:56:45.393Z,39.38
2023-04-28T23:59:12.614Z,34.05
